Terminal Aerodrome Forecast
Issued by NWS

Home | Current Version | Previous Version | Text Only | Print | Product List | Glossary On
Versions: 1 2 3 4 5 6 7 8 9 10 11 12 13 14 15 16 17 18 19 20 21
000
FTUS46 KSEW 270100 AAA
TAFCLM
TAF AMD
KCLM 270143Z 2702/2724 23007KT P6SM BKN009
      TEMPO 2702/2705 SCT009
     FM270500 28002KT 4SM BR OVC003
     FM271100 28003KT P6SM OVC003
     FM272300 31006KT P6SM OVC007=

USA.gov is the U.S. government's official web portal to all federal, state and local government web resources and services.